Time;durP1;ratioP1;P1;durP2;ratioP2;P2;SDS_P1;SDS_P2;PMS_P1;PMS_P2;Temp;Humidity;BMP_temperature;BMP_pressure;BME280_temperature;BME280_humidity;BME280_pressure;Samples;Min_cycle;Max_cycle;Signal;HPM_P1;HPM_P2
2021/10/13 00:00:58;;;;;;;4.70;4.30;;;;;;;;;;6214450;23;20247;-83
2021/10/13 00:03:43;;;;;;;5.27;4.60;;;;;;;;;;6216162;23;20178;-82
2021/10/13 00:06:30;;;;;;;5.67;4.77;;;;;;;;;;6215796;23;20163;-82
2021/10/13 00:09:15;;;;;;;5.27;4.77;;;;;;;;;;6215586;23;20509;-82
2021/10/13 00:12:00;;;;;;;5.07;4.67;;;;;;;;;;6215725;23;20198;-82
2021/10/13 00:14:45;;;;;;;8.00;5.07;;;;;;;;;;6215299;23;20170;-82
2021/10/13 00:17:30;;;;;;;8.23;6.40;;;;;;;;;;6215478;23;20166;-82
2021/10/13 00:20:15;;;;;;;6.30;5.10;;;;;;;;;;6215516;23;20183;-82
2021/10/13 00:23:02;;;;;;;7.93;5.27;;;;;;;;;;6215660;23;20170;-83
2021/10/13 00:25:47;;;;;;;5.60;5.10;;;;;;;;;;6215672;23;20263;-82
2021/10/13 00:28:32;;;;;;;5.10;4.70;;;;;;;;;;6215294;23;20171;-82
2021/10/13 00:31:17;;;;;;;6.50;4.90;;;;;;;;;;6215622;23;20174;-82
2021/10/13 00:34:02;;;;;;;6.80;4.73;;;;;;;;;;6215457;23;20215;-82
2021/10/13 00:36:47;;;;;;;4.40;4.00;;;;;;;;;;6215342;23;20238;-82
2021/10/13 00:39:33;;;;;;;4.97;4.40;;;;;;;;;;6215375;23;20213;-82
2021/10/13 00:42:18;;;;;;;5.30;4.40;;;;;;;;;;6215710;23;20167;-82
2021/10/13 00:45:06;;;;;;;4.53;4.13;;;;;;;;;;6215121;23;20243;-82
2021/10/13 00:47:51;;;;;;;4.53;4.17;;;;;;;;;;6215325;23;20183;-82
2021/10/13 00:50:36;;;;;;;4.33;3.90;;;;;;;;;;6215655;23;20225;-83
2021/10/13 00:53:23;;;;;;;4.00;3.60;;;;;;;;;;6215485;23;20191;-83
2021/10/13 00:56:09;;;;;;;4.33;3.83;;;;;;;;;;6215205;23;20537;-83
2021/10/13 00:58:54;;;;;;;4.40;4.00;;;;;;;;;;6215436;23;20548;-82
2021/10/13 01:01:42;;;;;;;4.20;3.90;;;;;;;;;;6215206;23;20509;-83
2021/10/13 01:04:39;;;;;;;7.17;3.60;;;;;;;;;;6215179;23;20675;-83
2021/10/13 01:07:30;;;;;;;3.40;3.20;;;;;;;;;;6215580;23;20639;-83
2021/10/13 01:10:18;;;;;;;3.70;3.30;;;;;;;;;;6215275;23;20206;-83
2021/10/13 01:13:10;;;;;;;5.30;3.60;;;;;;;;;;6214976;23;20179;-82
2021/10/13 01:16:00;;;;;;;5.57;3.10;;;;;;;;;;6215033;23;20174;-83
2021/10/13 01:18:50;;;;;;;3.40;3.10;;;;;;;;;;6215155;23;20167;-83
2021/10/13 01:21:43;;;;;;;6.53;3.17;;;;;;;;;;6215079;23;20166;-82
2021/10/13 01:24:34;;;;;;;5.47;3.63;;;;;;;;;;6215238;23;20171;-83
2021/10/13 01:27:29;;;;;;;3.53;3.23;;;;;;;;;;6215190;23;20250;-82
2021/10/13 01:30:15;;;;;;;7.37;4.83;;;;;;;;;;6214908;23;20190;-82
2021/10/13 01:33:03;;;;;;;5.00;3.40;;;;;;;;;;6215128;23;20163;-82
2021/10/13 01:35:50;;;;;;;6.60;3.70;;;;;;;;;;6214870;23;20167;-83
2021/10/13 01:38:39;;;;;;;4.03;3.57;;;;;;;;;;6214942;23;20632;-83
2021/10/13 01:41:25;;;;;;;4.03;3.63;;;;;;;;;;6214995;23;20226;-82
2021/10/13 01:44:12;;;;;;;4.73;3.87;;;;;;;;;;6214718;23;20540;-82
2021/10/13 01:46:57;;;;;;;5.30;3.67;;;;;;;;;;6214906;23;20179;-83
2021/10/13 01:49:43;;;;;;;4.23;3.60;;;;;;;;;;6214372;23;20698;-83
2021/10/13 01:52:29;;;;;;;3.90;3.57;;;;;;;;;;6215013;23;20582;-82
2021/10/13 01:55:15;;;;;;;3.60;3.40;;;;;;;;;;6214790;23;20202;-83
2021/10/13 01:58:02;;;;;;;3.93;3.63;;;;;;;;;;6215156;23;20591;-83
2021/10/13 02:00:50;;;;;;;4.30;3.40;;;;;;;;;;6214630;23;20184;-83
2021/10/13 02:03:36;;;;;;;4.20;3.80;;;;;;;;;;6214746;23;20210;-82
2021/10/13 02:06:22;;;;;;;4.10;3.50;;;;;;;;;;6214635;23;20501;-82
2021/10/13 02:09:07;;;;;;;3.97;3.67;;;;;;;;;;6215011;23;20674;-84
2021/10/13 02:11:54;;;;;;;5.20;3.70;;;;;;;;;;6214801;23;20246;-83
2021/10/13 02:14:40;;;;;;;4.53;3.80;;;;;;;;;;6214673;23;20631;-84
2021/10/13 02:17:27;;;;;;;4.43;4.03;;;;;;;;;;6215179;23;20624;-83
2021/10/13 02:20:15;;;;;;;3.90;3.50;;;;;;;;;;6215169;23;20655;-82
2021/10/13 02:23:03;;;;;;;3.90;3.60;;;;;;;;;;6214930;23;20616;-82
2021/10/13 02:25:49;;;;;;;4.80;3.40;;;;;;;;;;6214603;23;20167;-82
2021/10/13 02:28:38;;;;;;;5.00;3.87;;;;;;;;;;6215009;23;20167;-83
2021/10/13 02:31:24;;;;;;;6.13;3.47;;;;;;;;;;6214815;23;20202;-82
2021/10/13 02:34:11;;;;;;;4.13;3.60;;;;;;;;;;6214880;23;20162;-82
2021/10/13 02:36:56;;;;;;;6.60;4.07;;;;;;;;;;6214556;23;20495;-82
2021/10/13 02:39:41;;;;;;;4.40;3.90;;;;;;;;;;6214705;23;20241;-82
2021/10/13 02:42:27;;;;;;;5.67;3.47;;;;;;;;;;6214753;23;20619;-82
2021/10/13 02:45:13;;;;;;;4.40;3.97;;;;;;;;;;6214653;23;20206;-82
2021/10/13 02:48:01;;;;;;;4.17;3.80;;;;;;;;;;6214775;23;20210;-82
2021/10/13 02:50:50;;;;;;;4.13;3.73;;;;;;;;;;6214556;23;20645;-82
2021/10/13 02:53:37;;;;;;;4.97;3.80;;;;;;;;;;6214831;23;20163;-82
2021/10/13 02:56:26;;;;;;;4.23;3.90;;;;;;;;;;6214495;23;20182;-82
2021/10/13 02:59:13;;;;;;;4.67;3.50;;;;;;;;;;6214855;23;20487;-82
2021/10/13 03:02:02;;;;;;;5.30;3.53;;;;;;;;;;6214633;23;20237;-82
2021/10/13 03:04:49;;;;;;;4.10;3.37;;;;;;;;;;6214726;23;20210;-82
2021/10/13 03:07:38;;;;;;;6.17;3.50;;;;;;;;;;6214731;23;20497;-82
2021/10/13 03:10:27;;;;;;;3.93;3.63;;;;;;;;;;6215001;23;20214;-83
2021/10/13 03:13:13;;;;;;;4.13;3.73;;;;;;;;;;6214502;23;20242;-82
2021/10/13 03:16:01;;;;;;;6.87;3.43;;;;;;;;;;6214469;23;20477;-82
2021/10/13 03:18:47;;;;;;;4.00;3.30;;;;;;;;;;6214825;23;20214;-83
2021/10/13 03:21:33;;;;;;;4.53;3.63;;;;;;;;;;6214717;23;20163;-83
2021/10/13 03:24:20;;;;;;;4.80;3.67;;;;;;;;;;6214749;23;20246;-82
2021/10/13 03:27:05;;;;;;;4.10;3.80;;;;;;;;;;6215295;23;20267;-82
2021/10/13 03:29:50;;;;;;;3.87;3.57;;;;;;;;;;6214488;23;20211;-83
2021/10/13 03:32:37;;;;;;;4.80;3.77;;;;;;;;;;6214415;23;20230;-82
2021/10/13 03:35:23;;;;;;;4.30;3.90;;;;;;;;;;6214631;23;20166;-83
2021/10/13 03:38:10;;;;;;;4.27;3.87;;;;;;;;;;6216239;23;20167;-83
2021/10/13 03:40:58;;;;;;;4.07;3.77;;;;;;;;;;6216510;23;20291;-82
2021/10/13 03:43:49;;;;;;;5.03;3.93;;;;;;;;;;6216094;23;20174;-82
2021/10/13 03:46:35;;;;;;;5.43;4.10;;;;;;;;;;6216015;23;20242;-82
2021/10/13 03:49:22;;;;;;;4.40;4.00;;;;;;;;;;6215883;23;20210;-82
2021/10/13 03:52:07;;;;;;;5.17;4.23;;;;;;;;;;6215665;23;20182;-83
2021/10/13 03:54:52;;;;;;;4.13;3.67;;;;;;;;;;6215672;23;20167;-82
2021/10/13 03:57:39;;;;;;;4.60;4.30;;;;;;;;;;6215640;23;20171;-83
2021/10/13 04:00:24;;;;;;;5.50;5.00;;;;;;;;;;6215557;23;20203;-83
2021/10/13 04:03:09;;;;;;;4.97;4.67;;;;;;;;;;6215972;23;20171;-82
2021/10/13 04:05:54;;;;;;;5.67;5.10;;;;;;;;;;6215487;23;20498;-83
2021/10/13 04:08:39;;;;;;;5.53;4.97;;;;;;;;;;6214921;23;20167;-83
2021/10/13 04:11:24;;;;;;;5.60;5.20;;;;;;;;;;6215366;23;20202;-83
2021/10/13 04:14:11;;;;;;;5.57;5.03;;;;;;;;;;6215219;23;20168;-83
2021/10/13 04:16:56;;;;;;;8.93;4.90;;;;;;;;;;6215176;23;20171;-83
2021/10/13 04:19:41;;;;;;;5.60;5.20;;;;;;;;;;6215239;23;20684;-82
2021/10/13 04:22:26;;;;;;;5.90;4.70;;;;;;;;;;6215694;23;20302;-83
2021/10/13 04:25:11;;;;;;;4.90;4.50;;;;;;;;;;6215699;23;20484;-82
2021/10/13 04:27:56;;;;;;;5.00;4.50;;;;;;;;;;6215083;23;20171;-82
2021/10/13 04:30:45;;;;;;;5.00;4.50;;;;;;;;;;6215276;23;20238;-82
2021/10/13 04:33:31;;;;;;;5.07;4.67;;;;;;;;;;6215952;23;20491;-82
2021/10/13 04:36:16;;;;;;;7.03;5.10;;;;;;;;;;6215811;23;20170;-82
2021/10/13 04:39:01;;;;;;;5.13;4.73;;;;;;;;;;6215894;23;20486;-82
2021/10/13 04:41:46;;;;;;;4.70;4.40;;;;;;;;;;6216075;23;20233;-80
2021/10/13 04:44:31;;;;;;;8.67;4.60;;;;;;;;;;6215653;23;20214;-81
2021/10/13 04:47:17;;;;;;;5.23;4.73;;;;;;;;;;6215436;23;20171;-80
2021/10/13 04:50:03;;;;;;;5.13;4.60;;;;;;;;;;6215323;23;20206;-81
2021/10/13 04:52:48;;;;;;;5.60;5.10;;;;;;;;;;6215373;23;20163;-81
2021/10/13 04:55:34;;;;;;;6.73;5.27;;;;;;;;;;6215665;23;20202;-81
2021/10/13 04:58:18;;;;;;;4.83;4.43;;;;;;;;;;6215729;23;20506;-83
2021/10/13 05:01:03;;;;;;;5.20;4.70;;;;;;;;;;6214861;23;20206;-83
2021/10/13 05:03:49;;;;;;;5.00;4.60;;;;;;;;;;6214785;23;20178;-83
2021/10/13 05:06:35;;;;;;;5.37;4.93;;;;;;;;;;6214697;23;20691;-83
2021/10/13 05:09:20;;;;;;;5.27;4.80;;;;;;;;;;6215091;23;20659;-82
2021/10/13 05:12:05;;;;;;;4.67;4.33;;;;;;;;;;6215399;23;20189;-82
2021/10/13 05:14:51;;;;;;;5.60;4.50;;;;;;;;;;6215444;23;20214;-83
2021/10/13 05:17:36;;;;;;;5.07;4.77;;;;;;;;;;6214787;23;20175;-83
2021/10/13 05:20:22;;;;;;;5.10;4.67;;;;;;;;;;6214718;23;20243;-84
2021/10/13 05:23:07;;;;;;;5.10;4.70;;;;;;;;;;6214724;23;20174;-85
2021/10/13 05:25:54;;;;;;;5.00;4.60;;;;;;;;;;6214261;23;20174;-83
2021/10/13 05:28:39;;;;;;;5.60;5.07;;;;;;;;;;6213852;23;20166;-83
2021/10/13 05:31:24;;;;;;;6.23;5.03;;;;;;;;;;6214151;23;20265;-83
2021/10/13 05:34:09;;;;;;;6.40;5.50;;;;;;;;;;6213962;23;20380;-83
2021/10/13 05:36:56;;;;;;;6.73;5.53;;;;;;;;;;6214292;23;20234;-83
2021/10/13 05:39:40;;;;;;;6.40;5.80;;;;;;;;;;6214016;23;20269;-85
2021/10/13 05:42:25;;;;;;;6.43;4.80;;;;;;;;;;6214117;23;20246;-83
2021/10/13 05:45:11;;;;;;;6.00;5.40;;;;;;;;;;6214491;23;20236;-84
2021/10/13 05:47:56;;;;;;;5.80;5.20;;;;;;;;;;6214536;23;20230;-84
2021/10/13 05:50:41;;;;;;;5.40;5.00;;;;;;;;;;6214182;23;20203;-83
2021/10/13 05:53:29;;;;;;;8.53;5.50;;;;;;;;;;6214589;23;20175;-84
2021/10/13 05:56:14;;;;;;;7.40;5.50;;;;;;;;;;6214782;23;20170;-84
2021/10/13 05:58:59;;;;;;;6.83;5.50;;;;;;;;;;6214156;23;20229;-84
2021/10/13 06:01:44;;;;;;;6.10;5.50;;;;;;;;;;6214725;23;20203;-84
2021/10/13 06:04:29;;;;;;;7.27;5.63;;;;;;;;;;6214461;23;20183;-84
2021/10/13 06:07:14;;;;;;;8.53;5.83;;;;;;;;;;6214579;23;20170;-84
2021/10/13 06:10:00;;;;;;;6.80;5.90;;;;;;;;;;6214736;23;20167;-84
2021/10/13 06:12:46;;;;;;;7.90;5.90;;;;;;;;;;6214668;23;20186;-84
2021/10/13 06:15:34;;;;;;;6.60;5.87;;;;;;;;;;6214242;23;20186;-84
2021/10/13 06:18:19;;;;;;;6.33;5.70;;;;;;;;;;6214284;23;20253;-84
2021/10/13 06:21:05;;;;;;;13.70;8.53;;;;;;;;;;6214662;23;20261;-84
2021/10/13 06:23:50;;;;;;;10.70;7.37;;;;;;;;;;6214072;23;20159;-84
2021/10/13 06:26:36;;;;;;;8.77;7.30;;;;;;;;;;6214177;23;20171;-84
2021/10/13 06:29:21;;;;;;;9.07;6.97;;;;;;;;;;6214012;23;20251;-83
2021/10/13 06:32:07;;;;;;;9.63;6.80;;;;;;;;;;6214236;23;20237;-84
2021/10/13 06:34:52;;;;;;;9.23;7.67;;;;;;;;;;6213991;23;20171;-83
2021/10/13 06:37:37;;;;;;;10.17;7.00;;;;;;;;;;6214147;23;20167;-83
2021/10/13 06:40:22;;;;;;;7.67;6.90;;;;;;;;;;6214329;23;20496;-83
2021/10/13 06:43:10;;;;;;;9.63;7.40;;;;;;;;;;6214178;23;20234;-83
2021/10/13 06:45:56;;;;;;;8.53;7.50;;;;;;;;;;6214213;23;20269;-84
2021/10/13 06:48:41;;;;;;;10.83;8.10;;;;;;;;;;6213585;23;20237;-83
2021/10/13 06:51:26;;;;;;;11.53;7.70;;;;;;;;;;6214038;23;20202;-83
2021/10/13 06:54:11;;;;;;;9.87;7.30;;;;;;;;;;6214006;23;20174;-83
2021/10/13 06:56:56;;;;;;;12.13;7.90;;;;;;;;;;6213848;23;20170;-83
2021/10/13 06:59:42;;;;;;;20.53;11.37;;;;;;;;;;6213730;23;20247;-83
2021/10/13 07:02:27;;;;;;;25.53;13.83;;;;;;;;;;6214016;23;20222;-83
2021/10/13 07:05:12;;;;;;;19.07;10.30;;;;;;;;;;6213928;23;20218;-83
2021/10/13 07:07:57;;;;;;;12.13;8.47;;;;;;;;;;6213914;23;20166;-83
2021/10/13 07:10:42;;;;;;;8.90;8.00;;;;;;;;;;6214942;23;20256;-83
2021/10/13 07:13:27;;;;;;;11.53;8.13;;;;;;;;;;6215973;23;20190;-83
2021/10/13 07:16:13;;;;;;;10.47;8.70;;;;;;;;;;6216218;23;20247;-84
2021/10/13 07:18:58;;;;;;;9.67;8.57;;;;;;;;;;6215877;23;20671;-84
2021/10/13 07:21:44;;;;;;;10.83;7.97;;;;;;;;;;6216196;23;20242;-85
2021/10/13 07:24:29;;;;;;;8.20;6.73;;;;;;;;;;6215960;23;20245;-83
2021/10/13 07:27:14;;;;;;;11.00;6.80;;;;;;;;;;6216275;23;20235;-84
2021/10/13 07:30:00;;;;;;;10.30;6.90;;;;;;;;;;6216466;23;20174;-84
2021/10/13 07:32:46;;;;;;;9.53;6.30;;;;;;;;;;6215613;23;20190;-84
2021/10/13 07:35:31;;;;;;;12.20;6.97;;;;;;;;;;6215885;23;20171;-84
2021/10/13 07:38:17;;;;;;;11.77;7.33;;;;;;;;;;6215591;23;20271;-83
2021/10/13 07:41:02;;;;;;;8.27;7.00;;;;;;;;;;6215801;23;20240;-83
2021/10/13 07:43:48;;;;;;;8.37;7.33;;;;;;;;;;6215652;23;20163;-83
2021/10/13 07:46:32;;;;;;;8.60;7.30;;;;;;;;;;6215458;23;20203;-85
2021/10/13 07:49:19;;;;;;;9.97;7.43;;;;;;;;;;6215347;23;20289;-84
2021/10/13 07:52:05;;;;;;;9.20;7.83;;;;;;;;;;6215637;23;20325;-83
2021/10/13 07:54:50;;;;;;;9.50;8.10;;;;;;;;;;6215126;23;20171;-83
2021/10/13 07:57:34;;;;;;;8.13;7.30;;;;;;;;;;6215401;23;20537;-83
2021/10/13 08:00:20;;;;;;;10.47;7.70;;;;;;;;;;6215505;23;20174;-83
2021/10/13 08:03:05;;;;;;;8.60;7.03;;;;;;;;;;6215719;23;20226;-83
2021/10/13 08:05:52;;;;;;;7.90;7.20;;;;;;;;;;6215518;23;20171;-82
2021/10/13 08:08:37;;;;;;;10.30;7.70;;;;;;;;;;6215609;23;20167;-82
2021/10/13 08:11:22;;;;;;;9.43;7.73;;;;;;;;;;6215702;23;20167;-83
2021/10/13 08:14:07;;;;;;;10.00;7.57;;;;;;;;;;6215764;23;20580;-83
2021/10/13 08:16:53;;;;;;;9.20;7.50;;;;;;;;;;6215105;23;20175;-82
2021/10/13 08:19:38;;;;;;;11.63;6.90;;;;;;;;;;6215310;23;20174;-83
2021/10/13 08:22:24;;;;;;;9.57;7.53;;;;;;;;;;6215653;23;20250;-82
2021/10/13 08:25:10;;;;;;;10.23;7.90;;;;;;;;;;6215449;23;20236;-83
2021/10/13 08:27:56;;;;;;;9.00;7.50;;;;;;;;;;6215980;23;20209;-83
2021/10/13 08:30:41;;;;;;;8.33;7.53;;;;;;;;;;6215485;23;20206;-83
2021/10/13 08:33:26;;;;;;;9.30;7.63;;;;;;;;;;6215177;23;20191;-83
2021/10/13 08:36:11;;;;;;;12.27;7.50;;;;;;;;;;6215274;23;20167;-83
2021/10/13 08:38:57;;;;;;;10.23;7.77;;;;;;;;;;6215228;23;20175;-83
2021/10/13 08:41:42;;;;;;;13.77;8.00;;;;;;;;;;6215299;23;20174;-83
2021/10/13 08:44:28;;;;;;;13.03;7.60;;;;;;;;;;6215283;23;20170;-83
2021/10/13 08:47:12;;;;;;;11.00;8.07;;;;;;;;;;6215228;23;20488;-84
2021/10/13 08:49:57;;;;;;;9.67;7.27;;;;;;;;;;6214682;23;20210;-85
2021/10/13 08:52:42;;;;;;;10.30;7.73;;;;;;;;;;6214588;23;20187;-85
2021/10/13 08:55:29;;;;;;;9.63;7.37;;;;;;;;;;6214966;23;20183;-84
2021/10/13 08:58:19;;;;;;;8.50;7.37;;;;;;;;;;6214965;23;20226;-85
2021/10/13 09:01:09;;;;;;;8.17;7.30;;;;;;;;;;6215005;23;20215;-84
2021/10/13 09:03:58;;;;;;;9.67;7.80;;;;;;;;;;6215215;23;20553;-84
2021/10/13 09:06:43;;;;;;;11.43;8.33;;;;;;;;;;6215404;23;20170;-86
2021/10/13 09:09:28;;;;;;;13.13;7.83;;;;;;;;;;6215453;23;20167;-84
2021/10/13 09:12:15;;;;;;;9.87;7.73;;;;;;;;;;6215054;23;20187;-85
2021/10/13 09:15:05;;;;;;;13.83;7.13;;;;;;;;;;6215391;23;20183;-84
2021/10/13 09:17:51;;;;;;;11.30;7.70;;;;;;;;;;6215514;23;20251;-85
2021/10/13 09:20:37;;;;;;;13.90;8.40;;;;;;;;;;6215098;23;20241;-85
2021/10/13 09:23:27;;;;;;;10.33;7.13;;;;;;;;;;6214861;23;20179;-86
2021/10/13 09:26:12;;;;;;;11.40;7.80;;;;;;;;;;6214543;23;20226;-86
2021/10/13 09:28:59;;;;;;;11.23;7.47;;;;;;;;;;6214873;23;20167;-86
2021/10/13 09:31:44;;;;;;;10.90;7.47;;;;;;;;;;6214754;23;20607;-86
2021/10/13 09:34:29;;;;;;;10.90;7.27;;;;;;;;;;6214900;23;20167;-86
2021/10/13 09:37:14;;;;;;;12.10;6.70;;;;;;;;;;6214855;23;20246;-87
2021/10/13 09:40:02;;;;;;;11.60;6.20;;;;;;;;;;6214794;23;20249;-87
2021/10/13 09:42:48;;;;;;;9.70;6.57;;;;;;;;;;6214466;23;20166;-87
2021/10/13 09:45:37;;;;;;;8.70;6.23;;;;;;;;;;6214315;23;20238;-88
2021/10/13 09:48:23;;;;;;;7.73;5.77;;;;;;;;;;6214640;23;20186;-87
2021/10/13 09:51:16;;;;;;;13.17;6.17;;;;;;;;;;6214428;23;20330;-87
2021/10/13 09:54:06;;;;;;;11.63;6.83;;;;;;;;;;6214518;23;20237;-87
2021/10/13 09:56:51;;;;;;;9.97;6.53;;;;;;;;;;6214265;23;20170;-87
2021/10/13 09:59:36;;;;;;;13.23;6.40;;;;;;;;;;6214304;23;20166;-87
2021/10/13 10:02:23;;;;;;;8.93;6.63;;;;;;;;;;6214385;23;20306;-86
2021/10/13 10:05:11;;;;;;;9.37;5.97;;;;;;;;;;6214497;23;20663;-87
2021/10/13 10:08:00;;;;;;;8.87;6.10;;;;;;;;;;6214236;23;20624;-88
2021/10/13 10:11:02;;;;;;;6.53;5.47;;;;;;;;;;6214224;23;20612;-88
2021/10/13 10:13:47;;;;;;;9.30;6.40;;;;;;;;;;6213900;23;20191;-88
2021/10/13 10:16:34;;;;;;;9.10;6.07;;;;;;;;;;6213752;23;20171;-88
2021/10/13 10:19:21;;;;;;;8.77;5.97;;;;;;;;;;6213881;23;20654;-88
2021/10/13 10:22:10;;;;;;;9.03;6.50;;;;;;;;;;6213861;23;20299;-87
2021/10/13 10:24:56;;;;;;;11.90;6.00;;;;;;;;;;6214376;23;20246;-86
2021/10/13 10:27:41;;;;;;;6.23;5.63;;;;;;;;;;6214393;23;20210;-86
2021/10/13 10:30:27;;;;;;;8.00;5.70;;;;;;;;;;6214630;23;20163;-86
2021/10/13 10:33:19;;;;;;;12.23;5.93;;;;;;;;;;6214271;23;20660;-83
2021/10/13 10:36:09;;;;;;;8.30;5.83;;;;;;;;;;6214320;23;20202;-84
2021/10/13 10:38:55;;;;;;;9.17;5.77;;;;;;;;;;6214329;23;20230;-86
2021/10/13 10:41:41;;;;;;;9.73;5.10;;;;;;;;;;6215212;23;20615;-85
2021/10/13 10:44:29;;;;;;;6.63;4.90;;;;;;;;;;6214889;23;20178;-85
2021/10/13 10:47:15;;;;;;;6.63;5.10;;;;;;;;;;6215049;23;20495;-86
2021/10/13 10:50:04;;;;;;;5.73;4.77;;;;;;;;;;6214301;23;20214;-85
2021/10/13 10:53:14;;;;;;;5.73;4.80;;;;;;;;;;6214066;23;20211;-85
2021/10/13 10:56:00;;;;;;;10.40;5.50;;;;;;;;;;6214454;23;20295;-85
2021/10/13 10:58:57;;;;;;;9.33;5.23;;;;;;;;;;6214268;23;20502;-86
2021/10/13 11:01:59;;;;;;;7.30;4.70;;;;;;;;;;6215104;23;20247;-84
2021/10/13 11:04:44;;;;;;;6.17;4.60;;;;;;;;;;6214479;23;20213;-85
2021/10/13 11:07:29;;;;;;;6.53;4.60;;;;;;;;;;6214988;23;20166;-85
2021/10/13 11:10:16;;;;;;;6.80;4.57;;;;;;;;;;6215044;23;20171;-89
2021/10/13 11:13:01;;;;;;;4.37;3.50;;;;;;;;;;6214672;23;20188;-89
2021/10/13 11:15:46;;;;;;;7.47;3.70;;;;;;;;;;6214511;23;20170;-90
2021/10/13 11:18:31;;;;;;;5.63;3.67;;;;;;;;;;6215618;23;20222;-88
2021/10/13 11:21:16;;;;;;;5.90;3.40;;;;;;;;;;6214358;23;20230;-88
2021/10/13 11:24:01;;;;;;;9.73;4.67;;;;;;;;;;6214030;23;20179;-88
2021/10/13 11:26:48;;;;;;;7.97;3.90;;;;;;;;;;6214103;23;20174;-86
2021/10/13 11:29:34;;;;;;;6.33;4.20;;;;;;;;;;6214587;23;20206;-88
2021/10/13 11:32:21;;;;;;;6.23;3.90;;;;;;;;;;6214340;23;20171;-89
2021/10/13 11:35:07;;;;;;;3.47;3.17;;;;;;;;;;6214550;23;20207;-87
2021/10/13 11:37:54;;;;;;;3.50;2.97;;;;;;;;;;6214037;23;20191;-88
2021/10/13 11:40:39;;;;;;;4.10;3.00;;;;;;;;;;6214220;23;20171;-89
2021/10/13 11:43:26;;;;;;;4.50;2.83;;;;;;;;;;6214699;23;20170;-89
2021/10/13 11:46:15;;;;;;;3.67;3.30;;;;;;;;;;6214465;23;20167;-85
2021/10/13 11:49:03;;;;;;;4.77;3.10;;;;;;;;;;6214489;23;20293;-87
2021/10/13 11:52:03;;;;;;;5.23;2.93;;;;;;;;;;6214144;23;20207;-87
2021/10/13 11:54:56;;;;;;;6.67;3.00;;;;;;;;;;6214517;23;20509;-87
2021/10/13 11:57:43;;;;;;;6.00;3.10;;;;;;;;;;6215729;23;20170;-88
2021/10/13 12:00:32;;;;;;;3.57;2.90;;;;;;;;;;6216258;23;20171;-86
2021/10/13 12:03:18;;;;;;;3.20;2.87;;;;;;;;;;6216203;23;20198;-87
2021/10/13 12:06:04;;;;;;;3.73;2.80;;;;;;;;;;6216025;23;20493;-87
2021/10/13 12:08:50;;;;;;;4.07;2.97;;;;;;;;;;6215455;23;20223;-86
2021/10/13 12:11:37;;;;;;;3.63;3.27;;;;;;;;;;6215764;23;20171;-86
2021/10/13 12:14:22;;;;;;;6.13;3.53;;;;;;;;;;6215521;23;20666;-85
2021/10/13 12:20:15;;;;;;;5.33;3.13;;;;;;;;;;5130222;27;20733;-84
2021/10/13 12:23:08;;;;;;;7.93;3.20;;;;;;;;;;5109846;28;20319;-85
2021/10/13 12:25:54;;;;;;;5.77;3.03;;;;;;;;;;5109534;28;20184;-84
2021/10/13 12:28:39;;;;;;;3.37;2.50;;;;;;;;;;5109274;28;20199;-85
2021/10/13 12:31:25;;;;;;;2.40;2.20;;;;;;;;;;5109302;28;20188;-85
2021/10/13 12:34:14;;;;;;;2.47;2.27;;;;;;;;;;5109470;28;20189;-86
2021/10/13 12:37:00;;;;;;;3.80;2.60;;;;;;;;;;5109315;28;20607;-86
2021/10/13 12:39:47;;;;;;;2.90;2.60;;;;;;;;;;5109809;28;20565;-85
2021/10/13 12:42:32;;;;;;;4.10;2.57;;;;;;;;;;5109623;28;20192;-86
2021/10/13 12:45:22;;;;;;;5.20;2.80;;;;;;;;;;5109468;28;20188;-86
2021/10/13 12:48:14;;;;;;;3.03;2.70;;;;;;;;;;5109480;28;20227;-86
2021/10/13 12:51:12;;;;;;;3.23;2.70;;;;;;;;;;5096039;28;20291;-84
2021/10/13 12:54:01;;;;;;;9.13;2.70;;;;;;;;;;5088997;28;20193;-85
2021/10/13 12:56:46;;;;;;;3.47;2.40;;;;;;;;;;5088654;28;20193;-85
2021/10/13 12:59:31;;;;;;;3.57;2.70;;;;;;;;;;5088540;28;20264;-85
2021/10/13 13:02:16;;;;;;;6.80;3.03;;;;;;;;;;5088673;28;20315;-85
2021/10/13 13:05:02;;;;;;;3.23;2.47;;;;;;;;;;5088685;28;20595;-85
2021/10/13 13:07:47;;;;;;;6.57;2.27;;;;;;;;;;5088213;28;20193;-85
2021/10/13 13:10:33;;;;;;;3.17;2.30;;;;;;;;;;5088584;28;20685;-84
2021/10/13 13:13:18;;;;;;;3.20;2.13;;;;;;;;;;5088392;28;20185;-85
2021/10/13 13:16:04;;;;;;;4.30;2.27;;;;;;;;;;5088880;28;20590;-85
2021/10/13 13:18:49;;;;;;;4.77;2.30;;;;;;;;;;5087791;28;20291;-85
2021/10/13 13:21:34;;;;;;;4.57;2.43;;;;;;;;;;5088236;28;20278;-84
2021/10/13 13:24:19;;;;;;;5.17;2.40;;;;;;;;;;5088339;28;20320;-85
2021/10/13 13:27:06;;;;;;;5.40;2.47;;;;;;;;;;5088333;28;20272;-85
2021/10/13 13:29:51;;;;;;;2.43;2.23;;;;;;;;;;5083138;28;20212;-84
2021/10/13 13:32:37;;;;;;;4.67;2.37;;;;;;;;;;5074180;28;20240;-84
2021/10/13 13:35:22;;;;;;;3.53;2.50;;;;;;;;;;5074087;28;20674;-84
2021/10/13 13:38:07;;;;;;;4.03;2.10;;;;;;;;;;5073741;28;20705;-84
2021/10/13 13:40:52;;;;;;;2.67;2.47;;;;;;;;;;5073995;28;20194;-84
2021/10/13 13:43:38;;;;;;;3.00;2.13;;;;;;;;;;5073599;28;20194;-84
2021/10/13 13:46:25;;;;;;;4.73;2.53;;;;;;;;;;5073729;28;20236;-84
2021/10/13 13:49:10;;;;;;;2.40;2.00;;;;;;;;;;5073905;28;20658;-83
2021/10/13 13:51:55;;;;;;;5.77;2.37;;;;;;;;;;5073830;28;20265;-84
2021/10/13 13:54:40;;;;;;;3.43;2.67;;;;;;;;;;5073702;28;20198;-84
2021/10/13 13:57:25;;;;;;;5.60;2.60;;;;;;;;;;5073736;28;20201;-84
2021/10/13 14:00:12;;;;;;;3.70;2.13;;;;;;;;;;5073687;28;20205;-84
2021/10/13 14:02:57;;;;;;;3.63;2.20;;;;;;;;;;5073396;28;20190;-84
2021/10/13 14:05:42;;;;;;;2.53;2.33;;;;;;;;;;5073685;28;20205;-84
2021/10/13 14:08:27;;;;;;;3.73;2.70;;;;;;;;;;5073637;28;20844;-84
2021/10/13 14:11:12;;;;;;;2.80;2.13;;;;;;;;;;5073382;28;20185;-84
2021/10/13 14:13:57;;;;;;;3.10;2.13;;;;;;;;;;5073036;28;20198;-84
2021/10/13 14:16:43;;;;;;;3.23;2.33;;;;;;;;;;5073487;28;20186;-84
2021/10/13 14:19:28;;;;;;;2.90;2.33;;;;;;;;;;5074394;28;20301;-84
2021/10/13 14:22:15;;;;;;;3.57;2.30;;;;;;;;;;5074093;28;20269;-83
2021/10/13 14:25:01;;;;;;;2.83;2.27;;;;;;;;;;5074139;28;20186;-81
2021/10/13 14:27:46;;;;;;;2.30;2.10;;;;;;;;;;5073838;28;20194;-84
2021/10/13 14:30:31;;;;;;;3.03;2.50;;;;;;;;;;5074133;28;20193;-82
2021/10/13 14:33:18;;;;;;;5.17;2.77;;;;;;;;;;5073424;28;20190;-86
2021/10/13 14:36:03;;;;;;;5.50;2.33;;;;;;;;;;5074316;28;20301;-84
2021/10/13 14:38:48;;;;;;;5.83;2.33;;;;;;;;;;5073401;28;20209;-87
2021/10/13 14:41:34;;;;;;;2.60;2.40;;;;;;;;;;5072453;28;20198;-86
2021/10/13 14:44:19;;;;;;;5.33;2.27;;;;;;;;;;5073419;28;20829;-86
2021/10/13 14:47:04;;;;;;;2.20;2.00;;;;;;;;;;5073275;28;20197;-82
2021/10/13 14:49:50;;;;;;;3.47;2.37;;;;;;;;;;5073075;28;20237;-86
2021/10/13 14:52:36;;;;;;;2.13;2.03;;;;;;;;;;5073224;28;20190;-85
2021/10/13 14:55:21;;;;;;;2.93;2.20;;;;;;;;;;5073106;28;20672;-85
2021/10/13 14:58:06;;;;;;;2.00;1.90;;;;;;;;;;5073508;28;20197;-86
2021/10/13 15:00:51;;;;;;;2.60;2.00;;;;;;;;;;5072916;28;20217;-85
2021/10/13 15:03:36;;;;;;;2.17;2.07;;;;;;;;;;5072882;28;20285;-85
2021/10/13 15:06:22;;;;;;;2.50;2.30;;;;;;;;;;5072977;28;20312;-84
2021/10/13 15:09:08;;;;;;;2.20;2.00;;;;;;;;;;5072757;28;20181;-85
2021/10/13 15:11:53;;;;;;;4.00;2.80;;;;;;;;;;5072604;28;20198;-85
2021/10/13 15:14:38;;;;;;;2.73;2.50;;;;;;;;;;5072767;28;20179;-85
2021/10/13 15:17:23;;;;;;;5.93;2.57;;;;;;;;;;5073029;28;20662;-85
2021/10/13 15:20:09;;;;;;;6.37;2.93;;;;;;;;;;5052695;28;20210;-85
2021/10/13 15:22:58;;;;;;;4.43;3.07;;;;;;;;;;5052852;28;20210;-84
2021/10/13 15:25:43;;;;;;;8.93;3.27;;;;;;;;;;5052524;28;20245;-85
2021/10/13 15:28:30;;;;;;;5.80;2.90;;;;;;;;;;5052762;28;20198;-84
2021/10/13 15:31:15;;;;;;;4.40;2.70;;;;;;;;;;5052412;28;20187;-83
2021/10/13 15:34:00;;;;;;;3.50;2.87;;;;;;;;;;5052465;28;20276;-84
2021/10/13 15:36:45;;;;;;;5.07;2.63;;;;;;;;;;5052196;28;20191;-84
2021/10/13 15:39:32;;;;;;;3.17;2.77;;;;;;;;;;5052142;28;20675;-84
2021/10/13 15:42:17;;;;;;;5.07;2.80;;;;;;;;;;5052093;28;20682;-84
2021/10/13 15:45:04;;;;;;;4.67;2.70;;;;;;;;;;5052090;28;20191;-84
2021/10/13 15:47:50;;;;;;;3.23;2.57;;;;;;;;;;5052466;28;20183;-84
2021/10/13 15:50:35;;;;;;;3.70;2.90;;;;;;;;;;5051741;28;20349;-83
2021/10/13 15:53:20;;;;;;;5.37;3.17;;;;;;;;;;5051898;28;20553;-83
2021/10/13 15:56:07;;;;;;;5.23;2.77;;;;;;;;;;5051831;28;20194;-84
2021/10/13 15:58:52;;;;;;;4.40;2.90;;;;;;;;;;5052102;28;20548;-84
2021/10/13 16:01:37;;;;;;;4.03;2.67;;;;;;;;;;5051197;28;20181;-87
2021/10/13 16:04:25;;;;;;;5.53;2.80;;;;;;;;;;5051815;28;20195;-82
2021/10/13 16:07:11;;;;;;;3.37;2.80;;;;;;;;;;5051638;28;20658;-83
2021/10/13 16:09:58;;;;;;;3.77;2.50;;;;;;;;;;5051608;28;20186;-82
2021/10/13 16:12:45;;;;;;;5.83;2.83;;;;;;;;;;5051657;28;20279;-82
2021/10/13 16:15:30;;;;;;;4.20;2.73;;;;;;;;;;5051607;28;20182;-82
2021/10/13 16:18:15;;;;;;;2.70;2.50;;;;;;;;;;5057040;28;20242;-82
2021/10/13 16:21:00;;;;;;;6.80;2.70;;;;;;;;;;5071383;28;20213;-82
2021/10/13 16:23:47;;;;;;;4.10;3.30;;;;;;;;;;5071905;28;20281;-82
2021/10/13 16:26:36;;;;;;;4.83;3.30;;;;;;;;;;5071465;28;20292;-82
2021/10/13 16:29:22;;;;;;;4.77;3.77;;;;;;;;;;5071638;28;20610;-82
2021/10/13 16:32:09;;;;;;;4.07;3.37;;;;;;;;;;5071588;28;20379;-82
2021/10/13 16:34:54;;;;;;;5.70;3.40;;;;;;;;;;5071315;28;20247;-82
2021/10/13 16:37:39;;;;;;;4.87;3.20;;;;;;;;;;5071480;28;20186;-82